createdAt,value
2018-04-14T00:07:33.654Z,50
2018-04-14T00:17:33.647Z,48
2018-04-14T00:27:33.654Z,50
2018-04-14T00:37:33.589Z,47
2018-04-14T00:47:33.674Z,53
2018-04-14T00:57:33.671Z,49
2018-04-14T01:07:33.732Z,49
2018-04-14T01:17:33.756Z,47
2018-04-14T01:27:33.782Z,44
2018-04-14T01:37:33.774Z,42
2018-04-14T01:47:33.699Z,41
2018-04-14T01:57:33.686Z,37
2018-04-14T02:07:33.712Z,38
2018-04-14T02:17:33.778Z,35
2018-04-14T02:27:33.810Z,33
2018-04-14T02:37:33.777Z,33
2018-04-14T02:47:33.788Z,34
2018-04-14T02:57:33.829Z,31
2018-04-14T03:07:33.781Z,32
2018-04-14T03:17:33.856Z,31
2018-04-14T03:27:33.757Z,33
2018-04-14T03:37:33.809Z,32
2018-04-14T03:47:33.854Z,31
2018-04-14T03:57:33.784Z,32
2018-04-14T04:07:33.845Z,32
2018-04-14T04:17:33.826Z,30
2018-04-14T04:27:33.868Z,33
2018-04-14T04:37:33.859Z,33
2018-04-14T04:47:34.133Z,34
2018-04-14T04:57:33.843Z,34
2018-04-14T05:07:33.915Z,33
2018-04-14T05:17:33.834Z,37
2018-04-14T05:27:33.930Z,32
2018-04-14T05:37:33.943Z,35
2018-04-14T05:47:33.987Z,36
2018-04-14T05:57:33.951Z,33
2018-04-14T06:07:34.016Z,31
2018-04-14T06:17:33.929Z,31
2018-04-14T06:27:33.974Z,32
2018-04-14T06:37:33.942Z,30
2018-04-14T06:47:33.929Z,29
2018-04-14T06:57:34.042Z,32
2018-04-14T07:07:33.996Z,29
2018-04-14T07:17:34.022Z,30
2018-04-14T07:27:34.003Z,30
2018-04-14T07:37:34.142Z,29
2018-04-14T07:47:33.978Z,31
2018-04-14T07:57:34.058Z,32
2018-04-14T08:07:34.067Z,29
2018-04-14T08:17:34.126Z,31
2018-04-14T08:27:34.100Z,32
2018-04-14T08:37:34.114Z,32
2018-04-14T08:47:34.169Z,33
2018-04-14T08:57:34.202Z,30
2018-04-14T09:07:35.743Z,30
2018-04-14T09:17:36.388Z,31
2018-04-14T09:27:35.305Z,30
2018-04-14T09:37:36.605Z,30
2018-04-14T09:47:34.285Z,29
2018-04-14T09:57:34.494Z,27
2018-04-14T10:07:34.543Z,29
2018-04-14T10:17:36.156Z,28
2018-04-14T10:27:34.907Z,28
2018-04-14T10:37:35.227Z,29
2018-04-14T10:47:34.270Z,30
2018-04-14T10:57:34.787Z,34
2018-04-14T11:07:34.263Z,30
2018-04-14T11:17:34.271Z,31
2018-04-14T11:27:34.279Z,31
2018-04-14T11:37:34.326Z,32
2018-04-14T11:47:34.352Z,31
2018-04-14T11:57:34.282Z,31
2018-04-14T12:07:41.029Z,31
2018-04-14T12:17:34.457Z,31
2018-04-14T12:27:34.397Z,30
2018-04-14T12:37:34.443Z,31
2018-04-14T12:47:34.363Z,32
2018-04-14T12:57:34.359Z,31
2018-04-14T13:07:34.273Z,33
2018-04-14T13:17:42.517Z,32
2018-04-14T13:27:35.308Z,34
2018-04-14T13:37:34.438Z,33
2018-04-14T13:47:34.363Z,32
2018-04-14T13:57:34.356Z,32
2018-04-14T14:07:34.309Z,31
2018-04-14T14:17:34.350Z,32
2018-04-14T14:27:34.483Z,35
2018-04-14T14:37:34.308Z,33
2018-04-14T14:47:34.594Z,33
2018-04-14T14:57:34.318Z,35
2018-04-14T15:07:34.815Z,32
2018-04-14T15:17:34.504Z,32
2018-04-14T15:27:35.108Z,34
2018-04-14T15:37:36.545Z,33
2018-04-14T15:47:34.872Z,29
2018-04-14T15:57:34.905Z,32
2018-04-14T16:07:35.254Z,29
2018-04-14T16:17:34.438Z,29
2018-04-14T16:27:34.339Z,30
2018-04-14T16:37:36.280Z,29
2018-04-14T16:47:34.527Z,32
2018-04-14T16:57:34.491Z,31
2018-04-14T17:07:52.503Z,30
2018-04-14T17:17:34.307Z,32
2018-04-14T17:27:34.371Z,30
2018-04-14T17:37:34.412Z,32
2018-04-14T17:47:42.984Z,31
2018-04-14T17:57:34.391Z,31
2018-04-14T18:07:34.390Z,28
2018-04-14T18:17:34.422Z,31
2018-04-14T18:27:34.349Z,29
2018-04-14T18:37:34.381Z,29
2018-04-14T18:47:34.374Z,28
2018-04-14T18:57:34.502Z,29
2018-04-14T19:07:35.312Z,26
2018-04-14T19:17:35.602Z,29
2018-04-14T19:27:34.863Z,26
2018-04-14T19:37:34.497Z,26
2018-04-14T19:47:34.839Z,29
2018-04-14T19:57:34.665Z,25
2018-04-14T20:07:34.938Z,26
2018-04-14T20:17:34.706Z,27
2018-04-14T20:27:35.094Z,26
2018-04-14T20:37:34.673Z,27
2018-04-14T20:47:34.446Z,28
2018-04-14T20:57:34.719Z,28
2018-04-14T21:07:35.024Z,28
2018-04-14T21:17:35.203Z,30
2018-04-14T21:27:36.023Z,27
2018-04-14T21:37:34.545Z,29
2018-04-14T21:47:34.801Z,29
2018-04-14T21:57:35.019Z,30
2018-04-14T22:07:35.088Z,30
2018-04-14T22:17:35.511Z,27
2018-04-14T22:27:34.898Z,29
2018-04-14T22:37:36.573Z,29
2018-04-14T22:47:35.357Z,30
2018-04-14T22:57:35.127Z,29
2018-04-14T23:07:34.665Z,32
2018-04-14T23:17:35.538Z,31
2018-04-14T23:27:36.463Z,29
2018-04-14T23:37:48.259Z,30
2018-04-14T23:47:35.075Z,29
2018-04-14T23:57:40.067Z,29
